Main page
METAR-TAF:

METAR-TAF

Airports :

Dar es Salaam, Tanzania

Julius Nyerere International Airport

latitude: 06-52S, longitude: 039-12E, elevation: 55 m

Current weather observation

The report was made 1 hour and 30 minutes ago, at 06:00 UTC
Wind 6 kt from the South
Temperature 28°C
Humidity 89%
Pressure 1014 hPa
Visibility 10 km or more
Scattered clouds at a height of 1500 ft

METAR: HTDA 230600Z 19006KT 9999 SCT015 28/26 Q1014 NOSIG

Time: 10:30 (07:30 UTC)

Forecast

The report was made 2 hours and 30 minutes ago, at 05:00 UTC
Forecast valid from 23 at 06 UTC to 24 at 12 UTC
Wind kt from the North
Visibility 10 km or more
Few clouds at a height of 1300 ft
Broken clouds at a height of 8000 ft
Becoming
from 23 at 07 UTC to 23 at 10 UTC
Wind 10 kt from the South
Becoming
from 23 at 11 UTC to 23 at 14 UTC
Broken clouds at a height of 1700 ft
Few clouds at a height of 1800 ft, Cumulonimbus.

TAF: HTDA 230500Z 2306/2412 00000KT 9999 FEW013 BKN080 BECMG 2307/2310 17010KT BECMG 2311/2314 BKN017 FEW018CB

Weather observations and forecasts of more than 4000 airports (METAR and TAF reports).

The available stations are represented by yellow and red dots on the map.

Hover mouse over dot to see the name of the station.

Then click to see weather observations and forecasts.

To change the map : click on the green buttons with a black cross to zoom in, on the green button with a dash to zoom out, or on the green arrows for adjacent maps.


METAR-TAF: